createdAt,value
2018-05-02T09:55:39.255Z,29.93
2018-05-02T09:58:24.468Z,29.54
2018-05-02T10:12:06.152Z,30.01
2018-05-02T10:15:45.615Z,30.10
2018-05-02T10:21:32.838Z,28.65
2018-05-02T10:24:39.716Z,28.42
2018-05-02T10:27:26.458Z,28.99
2018-05-02T10:30:21.983Z,28.10
2018-05-02T10:33:10.363Z,28.36
2018-05-02T11:19:27.451Z,26.62
2018-05-02T11:22:26.623Z,25.49
2018-05-02T11:25:33.777Z,25.62
2018-05-02T11:42:50.890Z,24.49
2018-05-02T11:45:50.558Z,25.15
2018-05-02T12:12:47.544Z,22.37
2018-05-02T12:29:59.627Z,23.10
2018-05-02T12:55:56.374Z,23.50
2018-05-02T12:58:45.225Z,22.93
2018-05-02T13:04:29.563Z,22.92
2018-05-02T13:07:08.327Z,23.58
2018-05-02T13:09:44.050Z,22.92
2018-05-02T13:12:30.416Z,22.52
2018-05-02T13:30:55.871Z,23.12
2018-05-02T13:33:30.453Z,21.76
2018-05-02T13:36:02.771Z,21.38
2018-05-02T13:38:36.228Z,21.61
2018-05-02T13:41:09.479Z,21.70
2018-05-02T13:43:43.003Z,22.37
2018-05-02T13:46:15.467Z,22.86
2018-05-02T13:48:48.802Z,22.88
2018-05-02T13:51:23.434Z,21.77
2018-05-02T13:53:56.655Z,21.34
2018-05-02T13:56:29.907Z,21.30
2018-05-02T13:59:04.080Z,20.78
2018-05-02T14:01:37.508Z,19.96
2018-05-02T14:04:12.900Z,20.18
2018-05-02T14:06:46.882Z,19.09
2018-05-02T14:09:20.139Z,19.92
2018-05-02T14:11:53.587Z,20.05
2018-05-02T14:14:26.897Z,20.96
2018-05-02T14:17:00.561Z,21.77
2018-05-02T14:19:34.514Z,22.26
2018-05-02T14:22:07.801Z,22.23
2018-05-02T14:24:41.323Z,21.91
2018-05-02T14:30:40.588Z,22.58
2018-05-02T14:33:14.294Z,23.09
2018-05-02T14:35:47.489Z,23.26
2018-05-02T14:38:20.008Z,22.90
2018-05-02T14:40:54.389Z,22.36
2018-05-02T14:43:28.302Z,22.72
2018-05-02T14:46:01.479Z,23.28
2018-05-02T14:48:35.474Z,23.94
2018-05-02T14:51:08.054Z,24.07
2018-05-02T14:53:41.328Z,24.34
2018-05-02T14:56:14.916Z,24.37
2018-05-02T14:58:47.200Z,23.57
2018-05-02T15:01:22.802Z,23.24
2018-05-02T15:03:55.980Z,22.30
2018-05-02T15:06:29.163Z,22.40
2018-05-02T15:09:02.667Z,22.77
2018-05-02T15:11:34.221Z,22.44
2018-05-02T15:14:07.731Z,22.24
2018-05-02T15:16:41.123Z,22.59
2018-05-02T15:19:14.353Z,22.05
2018-05-02T15:21:47.883Z,22.69
2018-05-02T15:24:24.723Z,23.03
2018-05-02T15:26:58.014Z,23.02
2018-05-02T15:29:31.722Z,22.65
2018-05-02T15:32:05.773Z,22.86
2018-05-02T15:34:39.352Z,23.08
2018-05-02T15:37:12.610Z,22.46
2018-05-02T15:39:45.152Z,22.10
2018-05-02T15:42:18.725Z,21.53
2018-05-02T15:44:51.969Z,21.53
2018-05-02T15:47:25.238Z,20.96
2018-05-02T15:50:00.685Z,21.32
2018-05-02T15:52:34.099Z,21.09
2018-05-02T15:55:07.454Z,21.40
2018-05-02T15:57:41.343Z,21.06
2018-05-02T16:00:16.856Z,21.15
2018-05-02T16:02:50.417Z,21.33
2018-05-02T16:05:23.830Z,21.83
2018-05-02T16:07:57.049Z,22.02
2018-05-02T16:10:31.553Z,22.35
2018-05-02T16:13:04.807Z,22.23
2018-05-02T16:15:38.455Z,22.42
2018-05-02T16:18:11.499Z,23.16
2018-05-02T16:20:45.406Z,23.19
2018-05-02T16:23:22.729Z,23.69
2018-05-02T16:25:55.908Z,23.75
2018-05-02T16:28:29.182Z,23.41
2018-05-02T16:31:04.518Z,23.64
2018-05-02T16:33:36.015Z,23.91
2018-05-02T16:36:10.293Z,23.96
2018-05-02T16:38:44.730Z,24.38
2018-05-02T16:41:16.910Z,24.37
2018-05-02T16:43:50.701Z,24.50
2018-05-02T16:46:23.193Z,24.22
2018-05-02T16:48:56.405Z,24.45
2018-05-02T16:51:27.959Z,24.44
2018-05-02T16:54:00.071Z,24.60
2018-05-02T16:59:00.471Z,24.80
2018-05-02T17:01:33.770Z,24.74
2018-05-02T17:04:08.220Z,25.21
2018-05-02T17:06:41.684Z,25.78
2018-05-02T17:09:15.220Z,26.06
2018-05-02T17:11:48.424Z,26.27
2018-05-02T17:14:22.410Z,26.86
2018-05-02T17:16:56.434Z,26.95
2018-05-02T17:19:30.996Z,26.90
2018-05-02T17:22:04.416Z,26.99
2018-05-02T17:24:38.739Z,27.06
2018-05-02T17:27:10.284Z,27.33
2018-05-02T17:29:43.522Z,27.42
2018-05-02T17:32:16.755Z,27.38
2018-05-02T17:34:50.333Z,27.34
2018-05-02T17:37:24.484Z,27.63
2018-05-02T17:39:58.860Z,27.73
2018-05-02T17:42:32.241Z,28.23
2018-05-02T17:45:06.589Z,28.52
2018-05-02T17:47:39.769Z,28.63
2018-05-02T17:50:12.347Z,28.90
2018-05-02T17:52:45.627Z,29.13
2018-05-02T17:55:17.576Z,29.51
2018-05-02T17:57:51.999Z,29.69
2018-05-02T18:00:23.787Z,29.62
2018-05-02T18:02:57.090Z,29.82
2018-05-02T18:05:30.413Z,29.93
2018-05-02T18:08:02.059Z,30.01
2018-05-02T18:10:35.851Z,30.11
2018-05-02T18:13:08.237Z,30.08
2018-05-02T18:15:42.023Z,30.07
2018-05-02T18:18:15.390Z,30.29
2018-05-02T18:20:48.926Z,30.47
2018-05-02T18:23:23.000Z,30.28
2018-05-02T18:25:54.493Z,30.45
2018-05-02T18:28:27.094Z,30.39
2018-05-02T18:30:59.387Z,30.21
2018-05-02T18:33:30.833Z,29.90
2018-05-02T18:36:03.136Z,30.49
2018-05-02T18:38:35.732Z,31.43
2018-05-02T18:41:07.273Z,31.53
2018-05-02T18:43:39.558Z,31.73
2018-05-02T18:46:12.294Z,31.88
2018-05-02T18:48:44.300Z,32.38
2018-05-02T18:51:16.722Z,33.47
2018-05-02T18:53:51.281Z,33.33
2018-05-02T18:56:22.834Z,34.02
2018-05-02T18:58:56.892Z,34.26
2018-05-02T19:01:29.528Z,35.77
2018-05-02T19:04:00.929Z,36.68
2018-05-02T19:06:32.427Z,37.60
2018-05-02T19:09:04.377Z,37.83
2018-05-02T19:11:35.784Z,38.51
2018-05-02T19:14:07.968Z,39.06
2018-05-02T19:16:39.543Z,38.97
2018-05-02T19:19:15.951Z,39.09
2018-05-02T19:21:47.936Z,39.73
2018-05-02T19:24:20.247Z,40.06
2018-05-02T19:26:51.643Z,40.87
2018-05-02T19:29:24.454Z,40.86
2018-05-02T19:32:00.979Z,40.97
2018-05-02T19:34:33.459Z,40.92
2018-05-02T19:37:05.172Z,41.74
2018-05-02T19:39:40.809Z,42.44
2018-05-02T19:44:19.716Z,42.43
2018-05-02T19:46:52.030Z,41.70
2018-05-02T19:49:25.567Z,41.60
2018-05-02T19:53:04.807Z,41.77
2018-05-02T19:55:36.205Z,42.96
2018-05-02T20:00:40.588Z,43.83
2018-05-02T20:03:12.224Z,44.22
2018-05-02T20:05:43.866Z,44.40
2018-05-02T20:08:21.046Z,44.71
2018-05-02T20:10:57.959Z,45.16
2018-05-02T20:14:33.883Z,45.66
2018-05-02T20:17:07.595Z,45.48
2018-05-02T20:19:40.599Z,45.58
2018-05-02T20:22:12.135Z,45.31
2018-05-02T20:24:42.703Z,44.93
2018-05-02T20:27:15.204Z,44.72
2018-05-02T20:29:46.558Z,44.60
2018-05-02T20:32:18.007Z,44.28
2018-05-02T20:34:50.408Z,44.10
2018-05-02T20:37:21.795Z,44.59
2018-05-02T20:39:53.154Z,44.61
2018-05-02T20:42:24.555Z,44.33
2018-05-02T20:44:56.903Z,43.89
2018-05-02T20:47:29.263Z,43.21
2018-05-02T20:50:00.696Z,42.50
2018-05-02T20:52:32.089Z,42.07
2018-05-02T20:55:04.482Z,42.88
2018-05-02T20:57:36.342Z,42.79
2018-05-02T21:00:07.816Z,42.60
2018-05-02T21:02:39.276Z,42.56
2018-05-02T21:05:11.580Z,42.71
2018-05-02T21:07:43.491Z,42.40
2018-05-02T21:10:15.131Z,42.08
2018-05-02T21:12:46.499Z,41.63
2018-05-02T21:15:17.995Z,41.12
2018-05-02T21:17:50.307Z,40.77
2018-05-02T21:20:21.731Z,40.35
2018-05-02T21:22:54.158Z,40.38
2018-05-02T21:25:31.842Z,39.82
2018-05-02T21:28:05.939Z,39.45
2018-05-02T21:30:37.496Z,38.78
2018-05-02T21:35:47.444Z,38.46
2018-05-02T21:38:19.888Z,37.95
2018-05-02T21:40:51.367Z,38.21
2018-05-02T21:43:24.870Z,38.20
2018-05-02T21:45:56.282Z,37.82
2018-05-02T21:48:28.573Z,37.69
2018-05-02T21:51:02.202Z,37.11
2018-05-02T21:53:35.483Z,36.63
2018-05-02T21:56:07.832Z,36.36
2018-05-02T21:58:40.161Z,36.10
2018-05-02T22:01:11.949Z,36.15
2018-05-02T22:03:45.952Z,35.77
2018-05-02T22:06:18.393Z,35.83
2018-05-02T22:08:49.912Z,36.03
2018-05-02T22:11:23.950Z,36.33
2018-05-02T22:13:59.286Z,36.37
2018-05-02T22:16:31.627Z,36.18
2018-05-02T22:19:03.450Z,35.99
2018-05-02T22:21:36.179Z,36.24
2018-05-02T22:24:08.465Z,36.39
2018-05-02T22:26:41.653Z,36.23
2018-05-02T22:29:16.075Z,36.35
2018-05-02T22:31:49.382Z,36.40
2018-05-02T22:34:22.714Z,36.13
2018-05-02T22:36:55.025Z,35.86
2018-05-02T22:39:28.547Z,36.35
2018-05-02T22:42:00.890Z,36.76
2018-05-02T22:44:32.355Z,36.32
2018-05-02T22:47:03.666Z,36.40
2018-05-02T22:49:35.904Z,36.00
2018-05-02T22:52:07.633Z,35.66
2018-05-02T22:54:39.862Z,36.04
2018-05-02T22:57:13.859Z,35.78
2018-05-02T22:59:47.973Z,35.80
2018-05-02T23:02:19.976Z,35.96
2018-05-02T23:04:53.184Z,36.43
2018-05-02T23:07:27.533Z,38.16
2018-05-02T23:10:01.607Z,39.58
2018-05-02T23:12:33.362Z,41.31
2018-05-02T23:15:08.032Z,40.89
2018-05-02T23:17:39.962Z,41.49
2018-05-02T23:20:12.423Z,42.29
2018-05-02T23:22:43.884Z,42.79
2018-05-02T23:25:15.776Z,43.29
2018-05-02T23:27:47.166Z,42.73
2018-05-02T23:30:18.662Z,42.91
2018-05-02T23:32:57.900Z,42.70
2018-05-02T23:35:29.363Z,43.16
2018-05-02T23:38:00.994Z,43.53
2018-05-02T23:40:32.408Z,43.50
2018-05-02T23:43:04.122Z,43.12
2018-05-02T23:45:35.486Z,43.12
2018-05-02T23:48:06.944Z,43.04
2018-05-02T23:50:38.668Z,43.34
2018-05-02T23:53:10.007Z,43.07
2018-05-02T23:55:41.373Z,42.86
2018-05-02T23:58:15.385Z,42.81
